sensor_id;sensor_type;location;lat;lon;timestamp;P1;durP1;ratioP1;P2;durP2;ratioP2
15408;SDS011;7803;48.130;13.788;2024-01-07T00:44:42;10.00;;;9.00;;
15408;SDS011;7803;48.130;13.788;2024-01-07T00:47:44;10.77;;;9.68;;
15408;SDS011;7803;48.130;13.788;2024-01-07T00:50:46;10.07;;;9.07;;
15408;SDS011;7803;48.130;13.788;2024-01-07T00:53:48;10.13;;;9.13;;
15408;SDS011;7803;48.130;13.788;2024-01-07T00:56:50;10.30;;;9.30;;
15408;SDS011;7803;48.130;13.788;2024-01-07T00:59:54;10.50;;;9.48;;
15408;SDS011;7803;48.130;13.788;2024-01-07T01:02:56;10.75;;;9.65;;
15408;SDS011;7803;48.130;13.788;2024-01-07T01:05:58;10.13;;;9.05;;
15408;SDS011;7803;48.130;13.788;2024-01-07T01:09:00;10.85;;;9.75;;
15408;SDS011;7803;48.130;13.788;2024-01-07T01:12:03;10.52;;;9.40;;
15408;SDS011;7803;48.130;13.788;2024-01-07T01:15:10;10.52;;;9.38;;
15408;SDS011;7803;48.130;13.788;2024-01-07T01:18:13;10.48;;;9.38;;
15408;SDS011;7803;48.130;13.788;2024-01-07T01:21:15;10.07;;;9.07;;
15408;SDS011;7803;48.130;13.788;2024-01-07T01:24:18;10.60;;;9.50;;
15408;SDS011;7803;48.130;13.788;2024-01-07T01:27:20;10.82;;;9.73;;
15408;SDS011;7803;48.130;13.788;2024-01-07T01:30:23;11.13;;;9.05;;
15408;SDS011;7803;48.130;13.788;2024-01-07T01:33:27;10.55;;;9.45;;
15408;SDS011;7803;48.130;13.788;2024-01-07T01:36:30;10.18;;;9.18;;
15408;SDS011;7803;48.130;13.788;2024-01-07T01:39:32;10.45;;;9.35;;
15408;SDS011;7803;48.130;13.788;2024-01-07T01:42:35;10.45;;;9.45;;
15408;SDS011;7803;48.130;13.788;2024-01-07T01:45:40;11.80;;;9.77;;
15408;SDS011;7803;48.130;13.788;2024-01-07T01:48:42;10.88;;;9.77;;
15408;SDS011;7803;48.130;13.788;2024-01-07T01:51:45;10.50;;;9.38;;
15408;SDS011;7803;48.130;13.788;2024-01-07T01:54:47;10.98;;;9.73;;
15408;SDS011;7803;48.130;13.788;2024-01-07T01:57:50;13.07;;;10.00;;
15408;SDS011;7803;48.130;13.788;2024-01-07T02:00:57;12.90;;;10.07;;
15408;SDS011;7803;48.130;13.788;2024-01-07T02:03:59;12.13;;;9.82;;
15408;SDS011;7803;48.130;13.788;2024-01-07T02:07:02;13.02;;;10.05;;
15408;SDS011;7803;48.130;13.788;2024-01-07T02:10:04;13.48;;;9.73;;
15408;SDS011;7803;48.130;13.788;2024-01-07T02:13:07;14.18;;;10.80;;
15408;SDS011;7803;48.130;13.788;2024-01-07T02:16:11;11.38;;;9.55;;
15408;SDS011;7803;48.130;13.788;2024-01-07T02:19:16;11.45;;;10.23;;
15408;SDS011;7803;48.130;13.788;2024-01-07T02:22:20;12.43;;;10.43;;
15408;SDS011;7803;48.130;13.788;2024-01-07T02:25:23;13.75;;;11.00;;
15408;SDS011;7803;48.130;13.788;2024-01-07T02:28:25;14.35;;;11.02;;
15408;SDS011;7803;48.130;13.788;2024-01-07T02:31:27;12.95;;;10.98;;
15408;SDS011;7803;48.130;13.788;2024-01-07T02:34:29;12.68;;;10.02;;
15408;SDS011;7803;48.130;13.788;2024-01-07T02:37:45;12.30;;;10.95;;
15408;SDS011;7803;48.130;13.788;2024-01-07T02:44:08;18.23;;;11.50;;
15408;SDS011;7803;48.130;13.788;2024-01-07T02:47:24;17.00;;;11.50;;
15408;SDS011;7803;48.130;13.788;2024-01-07T02:50:26;19.58;;;12.70;;
15408;SDS011;7803;48.130;13.788;2024-01-07T02:53:28;22.55;;;13.85;;
15408;SDS011;7803;48.130;13.788;2024-01-07T02:56:32;16.98;;;12.13;;
15408;SDS011;7803;48.130;13.788;2024-01-07T02:59:34;16.95;;;11.70;;
15408;SDS011;7803;48.130;13.788;2024-01-07T03:02:36;15.02;;;10.73;;
15408;SDS011;7803;48.130;13.788;2024-01-07T03:05:39;11.40;;;10.05;;
15408;SDS011;7803;48.130;13.788;2024-01-07T03:08:41;14.32;;;10.52;;
15408;SDS011;7803;48.130;13.788;2024-01-07T03:11:45;13.48;;;10.45;;
15408;SDS011;7803;48.130;13.788;2024-01-07T03:14:47;10.35;;;7.90;;
15408;SDS011;7803;48.130;13.788;2024-01-07T03:17:50;9.00;;;7.00;;
15408;SDS011;7803;48.130;13.788;2024-01-07T03:20:52;9.43;;;7.65;;
15408;SDS011;7803;48.130;13.788;2024-01-07T03:23:54;8.63;;;7.53;;
15408;SDS011;7803;48.130;13.788;2024-01-07T03:26:58;10.52;;;7.20;;
15408;SDS011;7803;48.130;13.788;2024-01-07T03:30:00;8.23;;;7.03;;
15408;SDS011;7803;48.130;13.788;2024-01-07T03:33:03;10.13;;;7.60;;
15408;SDS011;7803;48.130;13.788;2024-01-07T03:36:08;8.23;;;7.20;;
15408;SDS011;7803;48.130;13.788;2024-01-07T03:39:11;9.13;;;7.03;;
15408;SDS011;7803;48.130;13.788;2024-01-07T03:42:15;8.75;;;7.13;;
15408;SDS011;7803;48.130;13.788;2024-01-07T03:45:17;8.65;;;7.32;;
15408;SDS011;7803;48.130;13.788;2024-01-07T03:48:19;8.77;;;7.03;;
15408;SDS011;7803;48.130;13.788;2024-01-07T03:51:21;9.32;;;6.57;;
15408;SDS011;7803;48.130;13.788;2024-01-07T03:54:24;8.98;;;6.93;;
15408;SDS011;7803;48.130;13.788;2024-01-07T03:57:27;7.63;;;6.57;;
15408;SDS011;7803;48.130;13.788;2024-01-07T04:00:29;8.40;;;6.50;;
15408;SDS011;7803;48.130;13.788;2024-01-07T04:03:31;8.18;;;6.47;;
15408;SDS011;7803;48.130;13.788;2024-01-07T04:06:34;7.03;;;6.30;;
15408;SDS011;7803;48.130;13.788;2024-01-07T04:09:37;8.57;;;7.05;;
15408;SDS011;7803;48.130;13.788;2024-01-07T04:12:41;7.28;;;6.28;;
15408;SDS011;7803;48.130;13.788;2024-01-07T04:15:43;7.53;;;6.30;;
15408;SDS011;7803;48.130;13.788;2024-01-07T04:18:45;8.68;;;6.80;;
15408;SDS011;7803;48.130;13.788;2024-01-07T04:21:47;7.85;;;6.47;;
15408;SDS011;7803;48.130;13.788;2024-01-07T04:24:49;7.78;;;6.25;;
15408;SDS011;7803;48.130;13.788;2024-01-07T04:27:53;6.95;;;6.13;;
15408;SDS011;7803;48.130;13.788;2024-01-07T04:30:55;7.20;;;6.22;;
15408;SDS011;7803;48.130;13.788;2024-01-07T04:33:57;7.90;;;6.68;;
15408;SDS011;7803;48.130;13.788;2024-01-07T04:36:59;6.95;;;6.25;;
15408;SDS011;7803;48.130;13.788;2024-01-07T04:40:01;7.32;;;6.50;;
15408;SDS011;7803;48.130;13.788;2024-01-07T04:43:05;7.40;;;6.60;;
15408;SDS011;7803;48.130;13.788;2024-01-07T04:46:07;7.15;;;6.13;;
15408;SDS011;7803;48.130;13.788;2024-01-07T04:49:10;8.13;;;6.50;;
15408;SDS011;7803;48.130;13.788;2024-01-07T04:52:13;6.90;;;6.00;;
15408;SDS011;7803;48.130;13.788;2024-01-07T04:55:15;8.55;;;6.85;;
15408;SDS011;7803;48.130;13.788;2024-01-07T04:58:19;7.70;;;6.95;;
15408;SDS011;7803;48.130;13.788;2024-01-07T05:01:21;7.47;;;6.70;;
15408;SDS011;7803;48.130;13.788;2024-01-07T05:04:23;7.20;;;6.47;;
15408;SDS011;7803;48.130;13.788;2024-01-07T05:07:25;7.70;;;6.90;;
15408;SDS011;7803;48.130;13.788;2024-01-07T05:10:27;7.85;;;6.75;;
15408;SDS011;7803;48.130;13.788;2024-01-07T05:13:31;8.57;;;6.93;;
15408;SDS011;7803;48.130;13.788;2024-01-07T05:16:33;8.18;;;6.90;;
15408;SDS011;7803;48.130;13.788;2024-01-07T05:19:35;7.63;;;6.63;;
15408;SDS011;7803;48.130;13.788;2024-01-07T05:22:37;7.65;;;6.85;;
15408;SDS011;7803;48.130;13.788;2024-01-07T05:25:41;8.00;;;7.20;;
15408;SDS011;7803;48.130;13.788;2024-01-07T05:28:45;7.90;;;7.10;;
15408;SDS011;7803;48.130;13.788;2024-01-07T05:31:47;8.70;;;7.40;;
15408;SDS011;7803;48.130;13.788;2024-01-07T05:34:49;7.53;;;6.72;;
15408;SDS011;7803;48.130;13.788;2024-01-07T05:37:51;8.75;;;7.28;;
15408;SDS011;7803;48.130;13.788;2024-01-07T05:40:54;7.82;;;7.03;;
15408;SDS011;7803;48.130;13.788;2024-01-07T05:43:57;8.27;;;7.38;;
15408;SDS011;7803;48.130;13.788;2024-01-07T05:46:59;8.02;;;7.22;;
15408;SDS011;7803;48.130;13.788;2024-01-07T05:50:02;8.18;;;7.35;;
15408;SDS011;7803;48.130;13.788;2024-01-07T05:53:04;7.57;;;6.85;;
15408;SDS011;7803;48.130;13.788;2024-01-07T05:56:07;7.18;;;6.47;;
15408;SDS011;7803;48.130;13.788;2024-01-07T05:59:10;7.88;;;6.80;;
15408;SDS011;7803;48.130;13.788;2024-01-07T06:02:12;7.20;;;6.50;;
15408;SDS011;7803;48.130;13.788;2024-01-07T06:05:16;7.07;;;6.47;;
15408;SDS011;7803;48.130;13.788;2024-01-07T06:08:18;7.85;;;7.00;;
15408;SDS011;7803;48.130;13.788;2024-01-07T06:11:20;7.53;;;6.72;;
15408;SDS011;7803;48.130;13.788;2024-01-07T06:14:23;7.07;;;6.38;;
15408;SDS011;7803;48.130;13.788;2024-01-07T06:17:26;7.72;;;6.93;;
15408;SDS011;7803;48.130;13.788;2024-01-07T06:20:28;7.25;;;6.55;;
15408;SDS011;7803;48.130;13.788;2024-01-07T06:23:32;7.43;;;6.68;;
15408;SDS011;7803;48.130;13.788;2024-01-07T06:26:34;7.45;;;6.75;;
15408;SDS011;7803;48.130;13.788;2024-01-07T06:29:39;7.03;;;6.35;;
15408;SDS011;7803;48.130;13.788;2024-01-07T06:32:41;6.72;;;6.03;;
15408;SDS011;7803;48.130;13.788;2024-01-07T06:35:44;7.03;;;6.32;;
15408;SDS011;7803;48.130;13.788;2024-01-07T06:38:46;6.97;;;6.28;;
15408;SDS011;7803;48.130;13.788;2024-01-07T06:41:48;7.47;;;6.32;;
15408;SDS011;7803;48.130;13.788;2024-01-07T06:44:52;7.55;;;6.38;;
15408;SDS011;7803;48.130;13.788;2024-01-07T06:47:54;7.00;;;6.32;;
15408;SDS011;7803;48.130;13.788;2024-01-07T06:50:57;6.72;;;6.00;;
15408;SDS011;7803;48.130;13.788;2024-01-07T06:53:59;6.65;;;5.95;;
15408;SDS011;7803;48.130;13.788;2024-01-07T06:57:01;6.45;;;5.85;;
15408;SDS011;7803;48.130;13.788;2024-01-07T07:00:07;6.95;;;6.25;;
15408;SDS011;7803;48.130;13.788;2024-01-07T07:03:09;6.63;;;6.03;;
15408;SDS011;7803;48.130;13.788;2024-01-07T07:06:12;7.05;;;6.28;;
15408;SDS011;7803;48.130;13.788;2024-01-07T07:09:14;6.75;;;6.05;;
15408;SDS011;7803;48.130;13.788;2024-01-07T07:12:16;6.43;;;5.75;;
15408;SDS011;7803;48.130;13.788;2024-01-07T07:15:21;6.80;;;6.10;;
15408;SDS011;7803;48.130;13.788;2024-01-07T07:18:23;6.45;;;5.85;;
15408;SDS011;7803;48.130;13.788;2024-01-07T07:21:25;5.90;;;5.40;;
15408;SDS011;7803;48.130;13.788;2024-01-07T07:24:27;5.78;;;5.25;;
15408;SDS011;7803;48.130;13.788;2024-01-07T07:27:29;5.95;;;5.40;;
15408;SDS011;7803;48.130;13.788;2024-01-07T07:30:33;6.32;;;5.72;;
15408;SDS011;7803;48.130;13.788;2024-01-07T07:33:35;6.55;;;5.63;;
15408;SDS011;7803;48.130;13.788;2024-01-07T07:36:39;5.93;;;5.32;;
15408;SDS011;7803;48.130;13.788;2024-01-07T07:39:43;6.57;;;5.50;;
15408;SDS011;7803;48.130;13.788;2024-01-07T07:42:45;5.95;;;5.35;;
15408;SDS011;7803;48.130;13.788;2024-01-07T07:45:48;5.85;;;5.28;;
15408;SDS011;7803;48.130;13.788;2024-01-07T07:48:51;5.47;;;4.97;;
15408;SDS011;7803;48.130;13.788;2024-01-07T07:51:53;5.70;;;5.20;;
15408;SDS011;7803;48.130;13.788;2024-01-07T07:54:55;5.65;;;5.15;;
15408;SDS011;7803;48.130;13.788;2024-01-07T07:57:57;5.82;;;5.25;;
15408;SDS011;7803;48.130;13.788;2024-01-07T08:01:00;5.63;;;5.13;;
15408;SDS011;7803;48.130;13.788;2024-01-07T08:04:02;5.80;;;5.20;;
15408;SDS011;7803;48.130;13.788;2024-01-07T08:07:05;5.72;;;5.10;;
15408;SDS011;7803;48.130;13.788;2024-01-07T08:10:08;5.93;;;5.32;;
15408;SDS011;7803;48.130;13.788;2024-01-07T08:13:10;5.57;;;5.07;;
15408;SDS011;7803;48.130;13.788;2024-01-07T08:16:14;5.43;;;4.93;;
15408;SDS011;7803;48.130;13.788;2024-01-07T08:19:16;5.50;;;5.00;;
15408;SDS011;7803;48.130;13.788;2024-01-07T08:22:18;5.13;;;4.63;;
15408;SDS011;7803;48.130;13.788;2024-01-07T08:25:20;5.32;;;4.82;;
15408;SDS011;7803;48.130;13.788;2024-01-07T08:28:23;5.05;;;4.55;;
15408;SDS011;7803;48.130;13.788;2024-01-07T08:31:27;5.18;;;4.68;;
15408;SDS011;7803;48.130;13.788;2024-01-07T08:34:29;5.28;;;4.78;;
15408;SDS011;7803;48.130;13.788;2024-01-07T08:37:31;6.00;;;5.03;;
15408;SDS011;7803;48.130;13.788;2024-01-07T08:40:34;4.95;;;4.45;;
15408;SDS011;7803;48.130;13.788;2024-01-07T08:43:36;4.85;;;4.35;;
15408;SDS011;7803;48.130;13.788;2024-01-07T08:46:39;5.25;;;4.75;;
15408;SDS011;7803;48.130;13.788;2024-01-07T08:49:41;5.30;;;4.70;;
15408;SDS011;7803;48.130;13.788;2024-01-07T08:52:44;4.68;;;4.28;;
15408;SDS011;7803;48.130;13.788;2024-01-07T08:55:46;4.97;;;4.47;;
15408;SDS011;7803;48.130;13.788;2024-01-07T08:58:48;4.90;;;4.40;;
15408;SDS011;7803;48.130;13.788;2024-01-07T09:01:52;4.93;;;4.40;;
15408;SDS011;7803;48.130;13.788;2024-01-07T09:04:54;5.10;;;4.50;;
15408;SDS011;7803;48.130;13.788;2024-01-07T09:07:57;5.00;;;4.50;;
15408;SDS011;7803;48.130;13.788;2024-01-07T09:11:01;5.20;;;4.70;;
15408;SDS011;7803;48.130;13.788;2024-01-07T09:14:06;4.50;;;4.10;;
15408;SDS011;7803;48.130;13.788;2024-01-07T09:17:10;4.50;;;4.10;;
15408;SDS011;7803;48.130;13.788;2024-01-07T09:20:13;4.70;;;4.28;;
15408;SDS011;7803;48.130;13.788;2024-01-07T09:23:15;4.40;;;4.00;;
15408;SDS011;7803;48.130;13.788;2024-01-07T09:26:17;4.43;;;4.03;;
15408;SDS011;7803;48.130;13.788;2024-01-07T09:29:20;4.35;;;3.95;;
15408;SDS011;7803;48.130;13.788;2024-01-07T09:32:24;5.13;;;4.50;;
15408;SDS011;7803;48.130;13.788;2024-01-07T09:35:26;5.00;;;4.40;;
15408;SDS011;7803;48.130;13.788;2024-01-07T09:38:28;5.07;;;4.28;;
15408;SDS011;7803;48.130;13.788;2024-01-07T09:41:30;4.38;;;3.95;;
15408;SDS011;7803;48.130;13.788;2024-01-07T09:44:32;4.40;;;4.00;;
15408;SDS011;7803;48.130;13.788;2024-01-07T09:47:37;4.22;;;3.83;;
15408;SDS011;7803;48.130;13.788;2024-01-07T09:50:40;4.13;;;3.72;;
15408;SDS011;7803;48.130;13.788;2024-01-07T09:53:42;3.90;;;3.58;;
15408;SDS011;7803;48.130;13.788;2024-01-07T09:56:48;3.97;;;3.58;;
15408;SDS011;7803;48.130;13.788;2024-01-07T09:59:56;4.05;;;3.67;;
15408;SDS011;7803;48.130;13.788;2024-01-07T10:03:00;4.35;;;3.95;;
15408;SDS011;7803;48.130;13.788;2024-01-07T10:06:03;5.07;;;3.80;;
15408;SDS011;7803;48.130;13.788;2024-01-07T10:09:05;3.92;;;3.53;;
15408;SDS011;7803;48.130;13.788;2024-01-07T10:12:08;5.28;;;3.88;;
15408;SDS011;7803;48.130;13.788;2024-01-07T10:15:10;4.10;;;3.65;;
15408;SDS011;7803;48.130;13.788;2024-01-07T10:18:13;3.50;;;3.20;;
15408;SDS011;7803;48.130;13.788;2024-01-07T10:21:15;4.10;;;3.70;;
15408;SDS011;7803;48.130;13.788;2024-01-07T10:24:18;4.05;;;3.65;;
15408;SDS011;7803;48.130;13.788;2024-01-07T10:27:22;3.70;;;3.40;;
15408;SDS011;7803;48.130;13.788;2024-01-07T10:30:24;3.90;;;3.50;;
15408;SDS011;7803;48.130;13.788;2024-01-07T10:33:31;4.30;;;3.67;;
15408;SDS011;7803;48.130;13.788;2024-01-07T10:36:34;3.65;;;3.35;;
15408;SDS011;7803;48.130;13.788;2024-01-07T10:39:37;4.20;;;3.33;;
15408;SDS011;7803;48.130;13.788;2024-01-07T10:42:39;3.95;;;3.40;;
15408;SDS011;7803;48.130;13.788;2024-01-07T10:45:44;5.90;;;3.47;;
15408;SDS011;7803;48.130;13.788;2024-01-07T10:48:53;3.55;;;3.22;;
15408;SDS011;7803;48.130;13.788;2024-01-07T10:52:00;3.60;;;3.30;;
15408;SDS011;7803;48.130;13.788;2024-01-07T10:55:07;3.65;;;3.20;;
15408;SDS011;7803;48.130;13.788;2024-01-07T10:58:11;3.30;;;3.00;;
15408;SDS011;7803;48.130;13.788;2024-01-07T11:01:14;3.80;;;3.25;;
15408;SDS011;7803;48.130;13.788;2024-01-07T11:04:20;3.30;;;3.00;;
15408;SDS011;7803;48.130;13.788;2024-01-07T11:07:31;3.60;;;3.30;;
15408;SDS011;7803;48.130;13.788;2024-01-07T11:10:41;3.17;;;2.88;;
15408;SDS011;7803;48.130;13.788;2024-01-07T11:13:49;3.40;;;3.10;;
15408;SDS011;7803;48.130;13.788;2024-01-07T11:16:51;4.00;;;3.10;;
15408;SDS011;7803;48.130;13.788;2024-01-07T11:19:56;4.32;;;3.30;;
15408;SDS011;7803;48.130;13.788;2024-01-07T11:26:28;3.35;;;2.80;;
15408;SDS011;7803;48.130;13.788;2024-01-07T11:29:31;3.05;;;2.75;;
15408;SDS011;7803;48.130;13.788;2024-01-07T11:32:33;3.50;;;3.00;;
15408;SDS011;7803;48.130;13.788;2024-01-07T11:38:59;3.10;;;2.78;;
15408;SDS011;7803;48.130;13.788;2024-01-07T11:42:03;3.33;;;3.00;;
15408;SDS011;7803;48.130;13.788;2024-01-07T11:45:06;3.20;;;2.90;;
15408;SDS011;7803;48.130;13.788;2024-01-07T11:48:10;2.80;;;2.58;;
15408;SDS011;7803;48.130;13.788;2024-01-07T11:51:14;3.40;;;2.90;;
15408;SDS011;7803;48.130;13.788;2024-01-07T11:54:16;3.70;;;3.10;;
15408;SDS011;7803;48.130;13.788;2024-01-07T11:57:19;3.42;;;2.80;;
15408;SDS011;7803;48.130;13.788;2024-01-07T12:00:21;3.10;;;2.80;;
15408;SDS011;7803;48.130;13.788;2024-01-07T12:03:23;3.10;;;2.80;;
15408;SDS011;7803;48.130;13.788;2024-01-07T12:06:27;3.05;;;2.75;;
15408;SDS011;7803;48.130;13.788;2024-01-07T12:09:30;3.10;;;2.80;;
15408;SDS011;7803;48.130;13.788;2024-01-07T12:12:32;3.55;;;3.25;;
15408;SDS011;7803;48.130;13.788;2024-01-07T12:15:34;3.30;;;3.00;;
15408;SDS011;7803;48.130;13.788;2024-01-07T12:18:37;3.78;;;3.42;;
15408;SDS011;7803;48.130;13.788;2024-01-07T12:21:41;4.85;;;4.32;;
15408;SDS011;7803;48.130;13.788;2024-01-07T12:24:43;4.70;;;4.00;;
15408;SDS011;7803;48.130;13.788;2024-01-07T12:27:45;4.45;;;4.05;;
15408;SDS011;7803;48.130;13.788;2024-01-07T12:30:52;5.10;;;4.60;;
15408;SDS011;7803;48.130;13.788;2024-01-07T12:33:56;5.43;;;4.93;;
15408;SDS011;7803;48.130;13.788;2024-01-07T12:37:00;5.63;;;5.10;;
15408;SDS011;7803;48.130;13.788;2024-01-07T12:40:02;5.97;;;5.35;;
15408;SDS011;7803;48.130;13.788;2024-01-07T12:43:08;5.80;;;5.28;;
15408;SDS011;7803;48.130;13.788;2024-01-07T12:46:10;6.60;;;6.00;;
15408;SDS011;7803;48.130;13.788;2024-01-07T12:49:12;6.38;;;5.78;;
15408;SDS011;7803;48.130;13.788;2024-01-07T12:52:17;6.93;;;6.22;;
15408;SDS011;7803;48.130;13.788;2024-01-07T12:55:19;6.90;;;6.20;;
15408;SDS011;7803;48.130;13.788;2024-01-07T12:58:21;7.80;;;7.00;;
15408;SDS011;7803;48.130;13.788;2024-01-07T13:01:23;7.45;;;6.75;;
15408;SDS011;7803;48.130;13.788;2024-01-07T13:04:25;8.18;;;7.47;;
15408;SDS011;7803;48.130;13.788;2024-01-07T13:07:29;7.75;;;7.05;;
15408;SDS011;7803;48.130;13.788;2024-01-07T13:10:31;8.10;;;7.30;;
15408;SDS011;7803;48.130;13.788;2024-01-07T13:13:33;8.48;;;7.68;;
15408;SDS011;7803;48.130;13.788;2024-01-07T13:16:35;7.60;;;6.90;;
15408;SDS011;7803;48.130;13.788;2024-01-07T13:19:37;8.57;;;7.78;;
15408;SDS011;7803;48.130;13.788;2024-01-07T13:22:42;8.05;;;7.25;;
15408;SDS011;7803;48.130;13.788;2024-01-07T13:25:44;8.77;;;7.97;;
15408;SDS011;7803;48.130;13.788;2024-01-07T13:28:46;8.60;;;7.80;;
15408;SDS011;7803;48.130;13.788;2024-01-07T13:31:48;8.40;;;7.60;;
15408;SDS011;7803;48.130;13.788;2024-01-07T13:34:51;8.57;;;7.68;;
15408;SDS011;7803;48.130;13.788;2024-01-07T13:37:56;8.38;;;7.63;;
15408;SDS011;7803;48.130;13.788;2024-01-07T13:40:58;8.43;;;7.63;;
15408;SDS011;7803;48.130;13.788;2024-01-07T13:44:00;8.80;;;8.00;;
15408;SDS011;7803;48.130;13.788;2024-01-07T13:47:03;8.63;;;7.82;;
15408;SDS011;7803;48.130;13.788;2024-01-07T13:50:06;7.95;;;7.20;;
15408;SDS011;7803;48.130;13.788;2024-01-07T13:53:12;8.85;;;7.95;;
15408;SDS011;7803;48.130;13.788;2024-01-07T13:56:15;8.82;;;7.93;;
15408;SDS011;7803;48.130;13.788;2024-01-07T13:59:17;9.00;;;8.10;;
15408;SDS011;7803;48.130;13.788;2024-01-07T14:02:19;8.32;;;7.55;;
15408;SDS011;7803;48.130;13.788;2024-01-07T14:05:22;7.97;;;7.28;;
15408;SDS011;7803;48.130;13.788;2024-01-07T14:08:26;7.82;;;7.13;;
15408;SDS011;7803;48.130;13.788;2024-01-07T14:11:28;7.95;;;7.25;;
15408;SDS011;7803;48.130;13.788;2024-01-07T14:14:30;8.40;;;7.60;;
15408;SDS011;7803;48.130;13.788;2024-01-07T14:17:33;8.48;;;7.68;;
15408;SDS011;7803;48.130;13.788;2024-01-07T14:20:35;8.43;;;7.63;;
15408;SDS011;7803;48.130;13.788;2024-01-07T14:23:39;8.30;;;7.50;;
15408;SDS011;7803;48.130;13.788;2024-01-07T14:26:41;8.43;;;7.63;;
15408;SDS011;7803;48.130;13.788;2024-01-07T14:29:43;8.10;;;7.40;;
15408;SDS011;7803;48.130;13.788;2024-01-07T14:32:46;7.80;;;7.10;;
15408;SDS011;7803;48.130;13.788;2024-01-07T14:35:48;7.95;;;7.25;;
15408;SDS011;7803;48.130;13.788;2024-01-07T14:38:52;8.05;;;7.25;;
15408;SDS011;7803;48.130;13.788;2024-01-07T14:41:55;7.70;;;7.00;;
15408;SDS011;7803;48.130;13.788;2024-01-07T14:44:57;7.57;;;6.88;;
15408;SDS011;7803;48.130;13.788;2024-01-07T14:48:00;8.07;;;7.28;;
15408;SDS011;7803;48.130;13.788;2024-01-07T14:51:02;8.20;;;7.40;;
15408;SDS011;7803;48.130;13.788;2024-01-07T14:54:08;7.70;;;6.90;;
15408;SDS011;7803;48.130;13.788;2024-01-07T14:57:10;8.05;;;7.28;;
15408;SDS011;7803;48.130;13.788;2024-01-07T15:00:12;7.20;;;6.50;;
15408;SDS011;7803;48.130;13.788;2024-01-07T15:03:15;7.40;;;6.70;;
15408;SDS011;7803;48.130;13.788;2024-01-07T15:06:19;7.05;;;6.45;;
15408;SDS011;7803;48.130;13.788;2024-01-07T15:09:25;7.10;;;6.47;;
15408;SDS011;7803;48.130;13.788;2024-01-07T15:12:27;7.05;;;6.45;;
15408;SDS011;7803;48.130;13.788;2024-01-07T15:15:35;7.15;;;6.55;;
15408;SDS011;7803;48.130;13.788;2024-01-07T15:18:37;7.13;;;6.47;;
15408;SDS011;7803;48.130;13.788;2024-01-07T15:21:40;7.15;;;6.45;;
15408;SDS011;7803;48.130;13.788;2024-01-07T15:24:43;6.90;;;6.20;;
15408;SDS011;7803;48.130;13.788;2024-01-07T15:27:45;6.45;;;5.85;;
15408;SDS011;7803;48.130;13.788;2024-01-07T15:30:48;6.45;;;5.85;;
15408;SDS011;7803;48.130;13.788;2024-01-07T15:33:50;6.93;;;6.32;;
15408;SDS011;7803;48.130;13.788;2024-01-07T15:36:52;6.75;;;6.15;;
15408;SDS011;7803;48.130;13.788;2024-01-07T15:39:56;6.53;;;5.93;;
15408;SDS011;7803;48.130;13.788;2024-01-07T15:42:58;6.53;;;5.93;;
15408;SDS011;7803;48.130;13.788;2024-01-07T15:46:00;6.35;;;5.75;;
15408;SDS011;7803;48.130;13.788;2024-01-07T15:49:07;6.20;;;5.57;;
15408;SDS011;7803;48.130;13.788;2024-01-07T15:52:11;6.47;;;5.88;;
15408;SDS011;7803;48.130;13.788;2024-01-07T15:55:15;6.80;;;6.10;;
15408;SDS011;7803;48.130;13.788;2024-01-07T15:58:18;6.15;;;5.55;;
15408;SDS011;7803;48.130;13.788;2024-01-07T16:01:20;6.30;;;5.32;;
15408;SDS011;7803;48.130;13.788;2024-01-07T16:04:22;6.07;;;5.47;;
15408;SDS011;7803;48.130;13.788;2024-01-07T16:07:24;5.97;;;5.47;;
15408;SDS011;7803;48.130;13.788;2024-01-07T16:10:28;6.00;;;5.40;;
15408;SDS011;7803;48.130;13.788;2024-01-07T16:13:30;7.00;;;5.53;;
15408;SDS011;7803;48.130;13.788;2024-01-07T16:16:33;6.50;;;5.60;;
15408;SDS011;7803;48.130;13.788;2024-01-07T16:19:37;8.77;;;5.32;;
15408;SDS011;7803;48.130;13.788;2024-01-07T16:22:39;6.07;;;5.47;;
15408;SDS011;7803;48.130;13.788;2024-01-07T16:25:44;8.50;;;5.65;;
15408;SDS011;7803;48.130;13.788;2024-01-07T16:28:46;6.00;;;5.30;;
15408;SDS011;7803;48.130;13.788;2024-01-07T16:31:50;7.18;;;5.35;;
15408;SDS011;7803;48.130;13.788;2024-01-07T16:34:54;6.05;;;4.72;;
15408;SDS011;7803;48.130;13.788;2024-01-07T17:37:58;5.28;;;4.30;;
15408;SDS011;7803;48.130;13.788;2024-01-07T17:41:01;4.28;;;3.88;;
15408;SDS011;7803;48.130;13.788;2024-01-07T17:44:03;6.40;;;4.57;;
15408;SDS011;7803;48.130;13.788;2024-01-07T17:47:06;4.55;;;4.15;;
15408;SDS011;7803;48.130;13.788;2024-01-07T17:50:10;4.40;;;4.00;;
15408;SDS011;7803;48.130;13.788;2024-01-07T17:53:13;4.97;;;4.32;;
15408;SDS011;7803;48.130;13.788;2024-01-07T17:56:18;5.55;;;4.30;;
15408;SDS011;7803;48.130;13.788;2024-01-07T17:59:20;4.47;;;4.07;;
15408;SDS011;7803;48.130;13.788;2024-01-07T18:02:23;4.32;;;3.92;;
15408;SDS011;7803;48.130;13.788;2024-01-07T18:05:26;5.38;;;4.20;;
15408;SDS011;7803;48.130;13.788;2024-01-07T18:08:29;4.50;;;4.00;;
15408;SDS011;7803;48.130;13.788;2024-01-07T18:11:32;4.30;;;3.85;;
15408;SDS011;7803;48.130;13.788;2024-01-07T18:14:36;3.90;;;3.60;;
15408;SDS011;7803;48.130;13.788;2024-01-07T18:17:38;5.53;;;3.90;;
15408;SDS011;7803;48.130;13.788;2024-01-07T18:20:44;4.47;;;3.80;;
15408;SDS011;7803;48.130;13.788;2024-01-07T18:23:46;4.53;;;3.83;;
15408;SDS011;7803;48.130;13.788;2024-01-07T18:26:48;4.20;;;3.80;;
15408;SDS011;7803;48.130;13.788;2024-01-07T18:29:56;5.13;;;4.32;;
15408;SDS011;7803;48.130;13.788;2024-01-07T18:33:00;4.72;;;3.83;;
15408;SDS011;7803;48.130;13.788;2024-01-07T18:36:08;4.97;;;3.70;;
15408;SDS011;7803;48.130;13.788;2024-01-07T18:39:11;3.78;;;3.42;;
15408;SDS011;7803;48.130;13.788;2024-01-07T18:42:13;3.90;;;3.60;;
15408;SDS011;7803;48.130;13.788;2024-01-07T18:45:16;3.70;;;3.40;;
15408;SDS011;7803;48.130;13.788;2024-01-07T18:48:18;4.22;;;3.35;;
15408;SDS011;7803;48.130;13.788;2024-01-07T18:51:22;3.97;;;3.55;;
15408;SDS011;7803;48.130;13.788;2024-01-07T18:54:24;4.00;;;3.67;;
15408;SDS011;7803;48.130;13.788;2024-01-07T18:57:27;3.83;;;3.42;;
15408;SDS011;7803;48.130;13.788;2024-01-07T19:00:30;4.32;;;3.80;;
15408;SDS011;7803;48.130;13.788;2024-01-07T19:03:33;4.53;;;3.80;;
15408;SDS011;7803;48.130;13.788;2024-01-07T19:06:37;4.05;;;3.65;;
15408;SDS011;7803;48.130;13.788;2024-01-07T19:09:40;5.00;;;3.75;;
15408;SDS011;7803;48.130;13.788;2024-01-07T19:12:42;4.30;;;3.90;;
15408;SDS011;7803;48.130;13.788;2024-01-07T19:15:44;4.63;;;4.10;;
15408;SDS011;7803;48.130;13.788;2024-01-07T19:18:46;4.60;;;4.20;;
15408;SDS011;7803;48.130;13.788;2024-01-07T19:21:50;5.15;;;4.25;;
15408;SDS011;7803;48.130;13.788;2024-01-07T19:24:53;5.00;;;4.43;;
15408;SDS011;7803;48.130;13.788;2024-01-07T19:27:56;4.88;;;4.40;;
15408;SDS011;7803;48.130;13.788;2024-01-07T19:30:58;5.45;;;4.47;;
15408;SDS011;7803;48.130;13.788;2024-01-07T19:34:00;5.65;;;4.40;;
15408;SDS011;7803;48.130;13.788;2024-01-07T19:37:05;5.05;;;4.60;;
15408;SDS011;7803;48.130;13.788;2024-01-07T19:40:08;5.30;;;4.80;;
15408;SDS011;7803;48.130;13.788;2024-01-07T19:43:10;5.10;;;4.70;;
15408;SDS011;7803;48.130;13.788;2024-01-07T19:46:12;5.22;;;4.72;;
15408;SDS011;7803;48.130;13.788;2024-01-07T19:49:24;5.10;;;4.65;;
15408;SDS011;7803;48.130;13.788;2024-01-07T19:52:29;4.72;;;4.32;;
15408;SDS011;7803;48.130;13.788;2024-01-07T19:55:32;5.15;;;4.68;;
15408;SDS011;7803;48.130;13.788;2024-01-07T19:58:34;5.15;;;4.65;;
15408;SDS011;7803;48.130;13.788;2024-01-07T20:01:36;5.45;;;4.95;;
15408;SDS011;7803;48.130;13.788;2024-01-07T20:04:38;5.30;;;4.80;;
15408;SDS011;7803;48.130;13.788;2024-01-07T20:07:43;5.43;;;4.93;;
15408;SDS011;7803;48.130;13.788;2024-01-07T20:10:45;5.22;;;4.72;;
15408;SDS011;7803;48.130;13.788;2024-01-07T20:13:48;5.82;;;5.32;;